createdAt,value
2022-11-25T00:01:15.717Z,100787.03
2022-11-25T00:03:43.290Z,100779.97
2022-11-25T00:06:27.444Z,100786.22
2022-11-25T00:08:56.894Z,100780.81
2022-11-25T00:11:23.620Z,100788.94
2022-11-25T00:13:50.419Z,100781.63
2022-11-25T00:16:19.811Z,100785.97
2022-11-25T00:18:51.923Z,100787.84
2022-11-25T00:21:21.091Z,100782.69
2022-11-25T00:23:55.571Z,100770.03
2022-11-25T00:26:22.990Z,100781.63
2022-11-25T00:28:50.033Z,100768.13
2022-11-25T00:31:21.994Z,100776.47
2022-11-25T00:33:49.395Z,100784.34
2022-11-25T00:36:21.533Z,100790.56
2022-11-25T00:38:52.729Z,100799.16
2022-11-25T00:41:37.836Z,100807.84
2022-11-25T00:44:23.191Z,100809.47
2022-11-25T00:46:49.704Z,100811.34
2022-11-25T00:49:16.163Z,100814.88
2022-11-25T00:51:42.620Z,100806.75
2022-11-25T00:54:09.150Z,100807.00
2022-11-25T00:56:35.642Z,100820.28
2022-11-25T00:59:03.504Z,100802.44
2022-11-25T01:01:30.132Z,100820.28
2022-11-25T01:03:56.935Z,100806.19
2022-11-25T01:06:23.860Z,100811.59
2022-11-25T01:08:50.341Z,100806.19
2022-11-25T01:11:19.733Z,100811.03
2022-11-25T01:13:47.773Z,100815.09
2022-11-25T01:16:16.708Z,100815.94
2022-11-25T01:18:44.054Z,100818.88
2022-11-25T01:21:13.284Z,100804.28
2022-11-25T01:23:40.598Z,100815.94
2022-11-25T01:26:10.493Z,100800.78
2022-11-25T01:28:37.475Z,100786.47
2022-11-25T01:31:07.097Z,100821.56
2022-11-25T01:33:35.065Z,100831.31
2022-11-25T01:36:06.703Z,100818.66
2022-11-25T01:38:33.788Z,100816.19
2022-11-25T01:41:00.905Z,100810.78
2022-11-25T01:43:28.815Z,100814.53
2022-11-25T01:46:02.557Z,100819.69
2022-11-25T01:48:45.640Z,100801.59
2022-11-25T01:51:44.078Z,100801.84
2022-11-25T01:54:13.836Z,100810.78
2022-11-25T01:56:49.737Z,100819.69
2022-11-25T01:59:16.667Z,100828.06
2022-11-25T02:01:43.253Z,100821.56
2022-11-25T02:04:13.565Z,100827.78
2022-11-25T02:06:47.092Z,100831.31
2022-11-25T02:09:15.297Z,100826.75
2022-11-25T02:11:43.985Z,100814.53
2022-11-25T02:14:14.611Z,100815.38
2022-11-25T02:16:41.327Z,100820.75
2022-11-25T02:19:22.709Z,100808.88
2022-11-25T02:21:55.040Z,100810.78
2022-11-25T02:24:43.195Z,100809.69
2022-11-25T02:27:09.721Z,100812.66
2022-11-25T02:29:36.484Z,100802.66
2022-11-25T02:32:03.180Z,100814.53
2022-11-25T02:34:29.687Z,100829.69
2022-11-25T02:36:56.953Z,100821.56
2022-11-25T02:39:23.496Z,100816.19
2022-11-25T02:41:54.286Z,100825.91
2022-11-25T02:44:20.778Z,100825.09
2022-11-25T02:46:47.335Z,100836.16
2022-11-25T02:49:13.872Z,100836.97
2022-11-25T02:51:42.080Z,100829.69
2022-11-25T02:54:08.577Z,100838.88
2022-11-25T02:56:36.798Z,100836.97
2022-11-25T02:59:04.320Z,100833.47
2022-11-25T03:01:31.978Z,100859.66
2022-11-25T03:03:59.247Z,100856.16
2022-11-25T03:06:25.697Z,100850.47
2022-11-25T03:08:52.234Z,100861.28
2022-11-25T03:11:18.712Z,100854.25
2022-11-25T03:13:45.291Z,100856.97
2022-11-25T03:16:12.279Z,100861.28
2022-11-25T03:18:38.865Z,100873.16
2022-11-25T03:21:05.608Z,100873.16
2022-11-25T03:23:32.055Z,100877.50
2022-11-25T03:25:58.610Z,100876.94
2022-11-25T03:28:25.056Z,100883.16
2022-11-25T03:30:51.631Z,100894.78
2022-11-25T03:33:18.116Z,100893.16
2022-11-25T03:35:44.590Z,100892.88
2022-11-25T03:38:11.028Z,100902.88
2022-11-25T03:40:37.740Z,100899.91
2022-11-25T03:43:04.989Z,100901.81
2022-11-25T03:45:31.597Z,100902.88
2022-11-25T03:47:58.147Z,100914.50
2022-11-25T03:50:24.618Z,100907.47
2022-11-25T03:52:51.237Z,100911.22
2022-11-25T03:55:17.826Z,100914.50
2022-11-25T03:57:44.380Z,100902.06
2022-11-25T04:00:11.555Z,100904.75
2022-11-25T04:02:38.082Z,100913.91
2022-11-25T04:05:05.561Z,100907.69
2022-11-25T04:07:32.200Z,100910.16
2022-11-25T04:09:58.851Z,100910.41
2022-11-25T04:12:43.738Z,100906.66
2022-11-25T04:15:10.336Z,100913.69
2022-11-25T04:17:36.896Z,100930.13
2022-11-25T04:20:04.133Z,100922.00
2022-11-25T04:22:30.668Z,100924.97
2022-11-25T04:24:57.180Z,100930.13
2022-11-25T04:27:23.729Z,100941.78
2022-11-25T04:29:50.226Z,100942.00
2022-11-25T04:32:16.747Z,100939.56
2022-11-25T04:34:43.278Z,100947.66
2022-11-25T04:37:09.954Z,100942.00
2022-11-25T04:39:36.611Z,100948.22
2022-11-25T04:42:41.413Z,100951.19
2022-11-25T04:45:22.992Z,100954.69
2022-11-25T04:47:51.175Z,100954.94
2022-11-25T04:50:22.215Z,100950.59
2022-11-25T04:52:48.782Z,100969.50
2022-11-25T04:55:15.501Z,100961.16
2022-11-25T04:57:42.015Z,100969.00
2022-11-25T05:00:09.709Z,100963.59
2022-11-25T05:02:36.816Z,100969.81
2022-11-25T05:05:03.613Z,100968.47
2022-11-25T05:07:30.390Z,100973.59
2022-11-25T05:09:57.500Z,100974.66
2022-11-25T05:12:28.872Z,100980.88
2022-11-25T05:14:56.197Z,100973.84
2022-11-25T05:17:25.847Z,100971.97
2022-11-25T05:19:52.850Z,100978.41
2022-11-25T05:22:23.404Z,100990.63
2022-11-25T05:24:50.096Z,100994.41
2022-11-25T05:27:17.294Z,101002.50
2022-11-25T05:29:44.642Z,101000.88
2022-11-25T05:32:11.821Z,101010.81
2022-11-25T05:34:39.055Z,101010.59
2022-11-25T05:37:05.919Z,101018.69
2022-11-25T05:39:32.600Z,101016.22
2022-11-25T05:41:59.245Z,101028.91
2022-11-25T05:44:26.203Z,101031.41
2022-11-25T05:46:52.786Z,101025.41
2022-11-25T05:49:20.885Z,101019.44
2022-11-25T05:51:48.174Z,101014.59
2022-11-25T05:54:14.934Z,101016.50
2022-11-25T05:56:41.460Z,101020.25
2022-11-25T05:59:08.007Z,101023.78
2022-11-25T06:01:34.551Z,101026.47
2022-11-25T06:04:02.244Z,101042.91
2022-11-25T06:06:29.248Z,101039.16
2022-11-25T06:08:56.054Z,101035.66
2022-11-25T06:11:22.885Z,101041.63
2022-11-25T06:13:49.328Z,101039.97
2022-11-25T06:16:21.874Z,101039.41
2022-11-25T06:18:48.602Z,101051.84
2022-11-25T06:21:15.922Z,101054.56
2022-11-25T06:23:44.774Z,101058.31
2022-11-25T06:26:22.192Z,101044.78
2022-11-25T06:28:52.329Z,101059.13
2022-11-25T06:31:21.547Z,101074.28
2022-11-25T06:33:49.809Z,101086.72
2022-11-25T06:36:17.428Z,101080.50
2022-11-25T06:38:50.150Z,101083.44
2022-11-25T06:41:16.876Z,101089.09
2022-11-25T06:43:43.577Z,101099.88
2022-11-25T06:46:18.548Z,101097.19
2022-11-25T06:48:49.460Z,101099.06
2022-11-25T06:51:16.991Z,101102.59
2022-11-25T06:53:43.548Z,101104.22
2022-11-25T06:56:13.902Z,101099.88
2022-11-25T06:58:41.588Z,101111.75
2022-11-25T07:01:15.726Z,101108.00
2022-11-25T07:03:46.039Z,101097.19
2022-11-25T07:06:14.338Z,101098.25
2022-11-25T07:08:41.328Z,101110.13
2022-11-25T07:11:15.962Z,101117.97
2022-11-25T07:13:42.494Z,101119.03
2022-11-25T07:16:10.797Z,101124.44
2022-11-25T07:18:39.286Z,101137.13
2022-11-25T07:21:15.273Z,101140.66
2022-11-25T07:23:43.582Z,101142.75
2022-11-25T07:26:16.141Z,101149.25
2022-11-25T07:28:43.613Z,101152.50
2022-11-25T07:31:24.388Z,101166.84
2022-11-25T07:33:56.115Z,101162.47
2022-11-25T07:36:23.599Z,101168.97
2022-11-25T07:38:50.704Z,101170.59
2022-11-25T07:41:22.679Z,101180.56
2022-11-25T07:43:52.952Z,101189.50
2022-11-25T07:46:26.456Z,101198.66
2022-11-25T07:48:56.256Z,101205.94
2022-11-25T07:51:26.817Z,101206.78
2022-11-25T07:53:55.699Z,101203.81
2022-11-25T07:56:22.338Z,101224.03
2022-11-25T07:58:49.312Z,101217.81
2022-11-25T08:01:18.595Z,101214.88
2022-11-25T08:03:47.056Z,101222.97
2022-11-25T08:06:16.485Z,101224.84
2022-11-25T08:08:43.663Z,101229.19
2022-11-25T08:11:17.412Z,101227.56
2022-11-25T08:13:44.424Z,101230.25
2022-11-25T08:16:15.645Z,101242.94
2022-11-25T08:18:42.655Z,101242.94
2022-11-25T08:21:11.209Z,101240.00
2022-11-25T08:23:40.524Z,101248.09
2022-11-25T08:26:09.742Z,101249.38
2022-11-25T08:28:36.720Z,101250.22
2022-11-25T08:31:08.306Z,101253.75
2022-11-25T08:33:34.939Z,101251.06
2022-11-25T08:36:01.602Z,101247.75
2022-11-25T08:38:29.546Z,101253.50
2022-11-25T08:40:56.612Z,101251.88
2022-11-25T08:43:29.233Z,101250.78
2022-11-25T08:45:56.901Z,101275.94
2022-11-25T08:48:23.959Z,101266.19
2022-11-25T08:50:53.175Z,101259.72
2022-11-25T08:53:21.426Z,101268.63
2022-11-25T08:55:49.374Z,101280.28
2022-11-25T08:58:15.930Z,101280.28
2022-11-25T09:00:44.496Z,101283.00
2022-11-25T09:03:12.237Z,101291.91
2022-11-25T09:05:41.499Z,101295.44
2022-11-25T09:08:09.521Z,101291.09
2022-11-25T09:10:37.704Z,101297.06
2022-11-25T09:13:04.448Z,101306.81
2022-11-25T09:15:32.672Z,101299.75
2022-11-25T09:18:05.839Z,101298.69
2022-11-25T09:20:33.578Z,101304.91
2022-11-25T09:23:01.562Z,101314.91
2022-11-25T09:25:28.869Z,101324.66
2022-11-25T09:27:56.427Z,101339.22
2022-11-25T09:30:24.255Z,101333.59
2022-11-25T09:32:53.081Z,101344.16
2022-11-25T09:35:20.545Z,101341.69
2022-11-25T09:37:47.325Z,101351.44
2022-11-25T09:40:36.188Z,101347.66
2022-11-25T09:43:36.852Z,101349.56
2022-11-25T09:46:43.297Z,101362.25
2022-11-25T09:49:37.188Z,101369.88
2022-11-25T09:52:09.857Z,101370.09
2022-11-25T09:54:53.954Z,101373.41
2022-11-25T09:57:32.651Z,101383.97
2022-11-25T09:59:59.085Z,101379.16
2022-11-25T10:02:35.079Z,101377.00
2022-11-25T10:05:16.010Z,101384.09
2022-11-25T10:07:51.690Z,101386.78
2022-11-25T10:10:23.911Z,101388.16
2022-11-25T10:12:53.243Z,101390.88
2022-11-25T10:15:27.349Z,101391.72
2022-11-25T10:17:58.721Z,101411.44
2022-11-25T10:20:35.758Z,101396.63
2022-11-25T10:23:08.816Z,101412.84
2022-11-25T10:25:38.952Z,101408.03
2022-11-25T10:28:30.161Z,101422.38
2022-11-25T10:31:06.413Z,101404.06
2022-11-25T10:33:46.147Z,101402.16
2022-11-25T10:36:34.684Z,101416.25
2022-11-25T10:39:28.092Z,101424.94
2022-11-25T10:42:22.916Z,101439.28
2022-11-25T10:44:49.482Z,101449.28
2022-11-25T10:47:26.649Z,101443.63
2022-11-25T10:50:14.786Z,101452.53
2022-11-25T10:52:51.265Z,101441.56
2022-11-25T10:55:26.519Z,101448.00
2022-11-25T10:57:53.675Z,101453.19
2022-11-25T11:00:31.929Z,101458.34
2022-11-25T11:03:01.531Z,101473.50
2022-11-25T11:05:30.834Z,101486.78
2022-11-25T11:08:12.522Z,101484.69
2022-11-25T11:10:39.953Z,101490.09
2022-11-25T11:13:22.123Z,101497.13
2022-11-25T11:15:48.754Z,101494.41
2022-11-25T11:18:41.682Z,101504.16
2022-11-25T11:21:29.385Z,101499.56
2022-11-25T11:23:57.206Z,101503.91
2022-11-25T11:26:31.500Z,101528.25
2022-11-25T11:28:59.612Z,101520.13
2022-11-25T11:31:32.013Z,101518.03
2022-11-25T11:34:30.235Z,101524.25
2022-11-25T11:37:28.463Z,101525.91
2022-11-25T11:40:17.030Z,101522.38
2022-11-25T11:43:07.729Z,101538.59
2022-11-25T11:45:52.543Z,101541.31
2022-11-25T11:48:29.127Z,101545.66
2022-11-25T11:51:17.252Z,101529.66
2022-11-25T11:53:49.806Z,101534.84
2022-11-25T11:56:35.316Z,101540.84
2022-11-25T11:59:21.445Z,101534.38
2022-11-25T12:01:47.910Z,101534.38
2022-11-25T12:04:49.554Z,101536.03
2022-11-25T12:07:36.229Z,101537.66
2022-11-25T12:10:10.233Z,101546.34
2022-11-25T12:12:42.731Z,101553.44
2022-11-25T12:15:19.354Z,101550.72
2022-11-25T12:17:54.372Z,101578.31
2022-11-25T12:20:46.466Z,101566.47
2022-11-25T12:23:23.405Z,101580.56
2022-11-25T12:25:55.079Z,101579.75
2022-11-25T12:28:29.437Z,101584.09
2022-11-25T12:31:11.752Z,101586.78
2022-11-25T12:33:48.240Z,101585.72
2022-11-25T12:36:31.857Z,101587.41
2022-11-25T12:39:19.029Z,101597.16
2022-11-25T12:41:54.130Z,101601.75
2022-11-25T12:44:27.222Z,101606.31
2022-11-25T12:46:56.164Z,101609.03
2022-11-25T12:49:28.734Z,101604.66
2022-11-25T12:52:10.335Z,101609.59
2022-11-25T12:55:04.402Z,101615.00
2022-11-25T12:57:30.832Z,101619.13
2022-11-25T13:03:50.706Z,101613.47
2022-11-25T13:06:22.928Z,101616.78
2022-11-25T13:09:26.741Z,101619.25
2022-11-25T13:12:32.546Z,101621.72
2022-11-25T13:15:02.364Z,101625.00
2022-11-25T13:17:32.628Z,101623.97
2022-11-25T13:20:25.338Z,101634.53
2022-11-25T13:23:25.361Z,101643.25
2022-11-25T13:25:54.077Z,101647.81
2022-11-25T13:28:32.493Z,101647.59
2022-11-25T13:31:14.229Z,101657.34
2022-11-25T13:33:43.479Z,101660.31
2022-11-25T13:36:24.106Z,101663.84
2022-11-25T13:38:50.536Z,101663.59
2022-11-25T13:41:20.091Z,101661.94
2022-11-25T13:43:52.275Z,101662.75
2022-11-25T13:46:40.706Z,101675.22
2022-11-25T13:49:21.833Z,101680.41
2022-11-25T13:52:18.522Z,101678.53
2022-11-25T13:54:54.157Z,101692.88
2022-11-25T13:57:26.157Z,101691.81
2022-11-25T13:59:56.876Z,101704.31
2022-11-25T14:02:29.287Z,101705.34
2022-11-25T14:05:17.463Z,101708.88
2022-11-25T14:08:14.720Z,101723.81
2022-11-25T14:11:18.199Z,101713.00
2022-11-25T14:14:18.481Z,101730.03
2022-11-25T14:17:07.006Z,101736.28
2022-11-25T14:20:10.939Z,101733.34
2022-11-25T14:23:22.235Z,101740.41
2022-11-25T14:25:57.763Z,101745.56
2022-11-25T14:28:33.850Z,101741.22
2022-11-25T14:31:06.931Z,101743.72
2022-11-25T14:33:38.265Z,101755.34
2022-11-25T14:36:29.293Z,101752.41
2022-11-25T14:39:02.120Z,101764.03
2022-11-25T14:41:36.440Z,101757.81
2022-11-25T14:44:12.761Z,101764.03
2022-11-25T14:46:57.650Z,101760.31
2022-11-25T14:49:48.888Z,101768.41
2022-11-25T14:52:17.440Z,101777.34
2022-11-25T14:54:45.357Z,101779.81
2022-11-25T14:57:11.997Z,101787.69
2022-11-25T14:59:44.996Z,101792.28
2022-11-25T15:02:29.577Z,101800.19
2022-11-25T15:05:21.030Z,101794.78
2022-11-25T15:08:21.979Z,101806.41
2022-11-25T15:10:55.879Z,101813.72
2022-11-25T15:13:34.586Z,101816.41
2022-11-25T15:16:13.455Z,101819.94
2022-11-25T15:18:58.508Z,101830.16
2022-11-25T15:21:30.581Z,101833.94
2022-11-25T15:23:57.543Z,101840.16
2022-11-25T15:26:30.479Z,101841.00
2022-11-25T15:29:04.406Z,101840.16
2022-11-25T15:31:36.029Z,101853.94
2022-11-25T15:34:05.553Z,101856.19
2022-11-25T15:36:32.091Z,101851.81
2022-11-25T15:39:20.470Z,101858.91
2022-11-25T15:41:52.099Z,101866.41
2022-11-25T15:44:20.902Z,101875.34
2022-11-25T15:47:05.067Z,101889.69
2022-11-25T15:49:34.007Z,101892.41
2022-11-25T15:52:13.196Z,101892.41
2022-11-25T15:54:46.989Z,101906.53
2022-11-25T15:57:24.623Z,101907.00
2022-11-25T15:59:53.923Z,101905.09
2022-11-25T16:02:39.104Z,101905.94
2022-11-25T16:05:14.809Z,101914.88
2022-11-25T16:07:50.384Z,101924.28
2022-11-25T16:10:48.733Z,101936.75
2022-11-25T16:13:22.591Z,101945.50
2022-11-25T16:15:58.231Z,101952.75
2022-11-25T16:18:40.245Z,101953.00
2022-11-25T16:21:15.253Z,101969.22
2022-11-25T16:23:49.428Z,101962.16
2022-11-25T16:26:24.106Z,101964.06
2022-11-25T16:28:56.385Z,101970.28
2022-11-25T16:31:23.707Z,101985.09
2022-11-25T16:33:53.606Z,101991.13
2022-11-25T16:36:20.074Z,101989.44
2022-11-25T16:38:51.978Z,101998.63
2022-11-25T16:41:25.022Z,102002.97
2022-11-25T16:43:52.328Z,101998.63
2022-11-25T16:46:20.135Z,102010.25
2022-11-25T16:48:47.519Z,102001.31
2022-11-25T16:51:16.985Z,102014.03
2022-11-25T16:53:44.588Z,102010.50
2022-11-25T16:56:29.680Z,102025.91
2022-11-25T16:58:57.833Z,102030.50
2022-11-25T17:01:28.163Z,102037.78
2022-11-25T17:03:54.722Z,102045.69
2022-11-25T17:06:23.552Z,102040.47
2022-11-25T17:08:50.964Z,102045.31
2022-11-25T17:11:30.740Z,102051.31
2022-11-25T17:14:02.643Z,102056.13
2022-11-25T17:16:30.132Z,102058.84
2022-11-25T17:18:59.520Z,102056.94
2022-11-25T17:21:28.670Z,102055.06
2022-11-25T17:24:00.858Z,102056.94
2022-11-25T17:26:50.625Z,102060.72
2022-11-25T17:29:19.703Z,102060.72
2022-11-25T17:31:46.732Z,102065.31
2022-11-25T17:34:16.228Z,102070.72
2022-11-25T17:36:44.669Z,102070.91
2022-11-25T17:39:12.706Z,102075.28
2022-11-25T17:41:43.594Z,102071.75
2022-11-25T17:44:19.435Z,102082.38
2022-11-25T17:46:45.915Z,102085.28
2022-11-25T17:49:15.128Z,102089.28
2022-11-25T17:51:42.877Z,102089.88
2022-11-25T17:54:09.952Z,102105.28
2022-11-25T17:56:37.012Z,102099.84
2022-11-25T17:59:07.432Z,102108.22
2022-11-25T18:01:34.368Z,102111.94
2022-11-25T18:04:16.301Z,102115.50
2022-11-25T18:06:43.207Z,102117.16
2022-11-25T18:09:10.172Z,102127.97
2022-11-25T18:11:40.301Z,102133.59
2022-11-25T18:14:16.228Z,102134.66
2022-11-25T18:16:43.018Z,102138.41
2022-11-25T18:19:13.558Z,102144.66
2022-11-25T18:21:41.312Z,102155.47
2022-11-25T18:24:07.953Z,102154.66
2022-11-25T18:26:43.424Z,102162.97
2022-11-25T18:29:16.378Z,102165.69
2022-11-25T18:31:44.713Z,102166.72
2022-11-25T18:34:18.241Z,102173.78
2022-11-25T18:36:45.576Z,102168.63
2022-11-25T18:39:12.181Z,102167.78
2022-11-25T18:41:41.652Z,102176.72
2022-11-25T18:44:26.228Z,102175.09
2022-11-25T18:46:54.227Z,102175.28
2022-11-25T18:49:21.898Z,102175.91
2022-11-25T18:51:48.387Z,102194.22
2022-11-25T18:54:15.185Z,102185.28
2022-11-25T18:56:42.178Z,102193.41
2022-11-25T18:59:15.517Z,102194.47
2022-11-25T19:01:46.769Z,102199.03
2022-11-25T19:04:16.591Z,102202.34
2022-11-25T19:06:43.752Z,102206.94
2022-11-25T19:09:11.157Z,102212.56
2022-11-25T19:11:51.162Z,102205.50
2022-11-25T19:14:34.055Z,102208.84
2022-11-25T19:17:03.407Z,102215.47
2022-11-25T19:19:30.425Z,102209.25
2022-11-25T19:21:58.300Z,102215.94
2022-11-25T19:24:24.773Z,102230.28
2022-11-25T19:26:54.338Z,102218.19
2022-11-25T19:29:32.041Z,102223.00
2022-11-25T19:32:01.915Z,102228.59
2022-11-25T19:34:43.961Z,102231.31
2022-11-25T19:37:20.354Z,102237.59
2022-11-25T19:39:51.934Z,102242.38
2022-11-25T19:42:19.106Z,102253.41
2022-11-25T19:44:46.829Z,102249.66
2022-11-25T19:47:19.653Z,102251.31
2022-11-25T19:49:46.889Z,102267.16
2022-11-25T19:52:15.992Z,102260.47
2022-11-25T19:54:42.924Z,102262.34
2022-11-25T19:57:15.266Z,102260.72
2022-11-25T19:59:41.827Z,102265.25
2022-11-25T20:02:34.924Z,102271.72
2022-11-25T20:05:03.015Z,102274.44
2022-11-25T20:07:31.085Z,102269.84
2022-11-25T20:10:07.661Z,102279.25
2022-11-25T20:12:34.225Z,102284.44
2022-11-25T20:15:00.821Z,102281.72
2022-11-25T20:17:31.546Z,102291.72
2022-11-25T20:20:11.887Z,102298.78
2022-11-25T20:22:41.790Z,102298.19
2022-11-25T20:25:10.766Z,102296.31
2022-11-25T20:27:37.471Z,102309.59
2022-11-25T20:30:15.199Z,102314.41
2022-11-25T20:32:41.662Z,102318.13
2022-11-25T20:35:09.144Z,102323.16
2022-11-25T20:37:50.623Z,102326.25
2022-11-25T20:40:24.777Z,102327.06
2022-11-25T20:42:52.292Z,102332.47
2022-11-25T20:45:21.715Z,102332.94
2022-11-25T20:47:50.851Z,102345.41
2022-11-25T20:50:19.428Z,102347.28
2022-11-25T20:52:47.169Z,102352.69
2022-11-25T20:55:21.829Z,102358.09
2022-11-25T20:57:48.473Z,102360.19
2022-11-25T21:00:28.737Z,102362.06
2022-11-25T21:02:57.049Z,102362.88
2022-11-25T21:05:23.950Z,102365.00
2022-11-25T21:07:50.978Z,102376.63
2022-11-25T21:10:17.489Z,102377.47
2022-11-25T21:12:43.940Z,102376.63
2022-11-25T21:15:16.250Z,102378.28
2022-11-25T21:17:42.789Z,102392.03
2022-11-25T21:20:09.789Z,102393.06
2022-11-25T21:22:41.162Z,102390.34
2022-11-25T21:25:15.564Z,102399.34
2022-11-25T21:27:42.273Z,102403.88
2022-11-25T21:30:20.483Z,102410.34
2022-11-25T21:32:47.784Z,102417.41
2022-11-25T21:35:15.158Z,102416.81
2022-11-25T21:37:44.440Z,102424.50
2022-11-25T21:40:32.304Z,102419.72
2022-11-25T21:43:00.130Z,102429.69
2022-11-25T21:45:26.708Z,102419.72
2022-11-25T21:47:53.268Z,102422.41
2022-11-25T21:50:20.785Z,102424.28
2022-11-25T21:52:47.493Z,102429.09
2022-11-25T21:55:16.479Z,102432.41
2022-11-25T21:57:43.680Z,102427.41
2022-11-25T22:00:20.440Z,102433.22
2022-11-25T22:02:47.317Z,102448.63
2022-11-25T22:05:15.955Z,102440.75
2022-11-25T22:07:42.866Z,102442.81
2022-11-25T22:10:10.285Z,102434.50
2022-11-25T22:12:41.360Z,102438.03
2022-11-25T22:15:21.087Z,102441.78
2022-11-25T22:17:48.614Z,102443.88
2022-11-25T22:20:22.703Z,102438.22
2022-11-25T22:22:49.212Z,102448.44
2022-11-25T22:25:15.846Z,102456.56
2022-11-25T22:27:42.560Z,102449.50
2022-11-25T22:30:15.290Z,102444.91
2022-11-25T22:32:41.955Z,102451.38
2022-11-25T22:35:14.944Z,102455.72
2022-11-25T22:37:41.958Z,102455.94
2022-11-25T22:40:08.910Z,102466.53
2022-11-25T22:42:35.575Z,102455.09
2022-11-25T22:45:05.950Z,102459.09
2022-11-25T22:47:43.930Z,102464.50
2022-11-25T22:50:22.380Z,102465.31
2022-11-25T22:52:50.137Z,102470.09
2022-11-25T22:55:18.986Z,102473.63
2022-11-25T22:57:46.814Z,102479.66
2022-11-25T23:00:19.385Z,102481.53
2022-11-25T23:02:46.879Z,102494.63
2022-11-25T23:05:17.654Z,102497.94
2022-11-25T23:07:44.233Z,102497.13
2022-11-25T23:10:16.837Z,102502.53
2022-11-25T23:12:43.975Z,102500.66
2022-11-25T23:15:19.111Z,102500.66
2022-11-25T23:17:51.364Z,102519.81
2022-11-25T23:20:28.373Z,102526.25
2022-11-25T23:22:54.870Z,102522.50
2022-11-25T23:25:23.046Z,102519.81
2022-11-25T23:27:49.811Z,102518.97
2022-11-25T23:30:19.358Z,102523.56
2022-11-25T23:32:46.062Z,102524.38
2022-11-25T23:35:15.223Z,102528.13
2022-11-25T23:37:41.920Z,102525.44
2022-11-25T23:40:17.753Z,102531.88
2022-11-25T23:42:44.545Z,102530.84
2022-11-25T23:45:21.401Z,102528.56
2022-11-25T23:47:50.333Z,102533.13
2022-11-25T23:50:30.550Z,102530.22
2022-11-25T23:53:01.384Z,102524.81
2022-11-25T23:55:34.129Z,102535.41
2022-11-25T23:58:02.877Z,102530.22
